Aérodrome :
LOGIN :

S'inscrire | Disclaimer

   EN    FR    IT 

 










Légende :    VFR   VFR Marginal   IFR   IFR Intensif   IFR Très Intensif
Visi : 
Plafond : 
>= 8 km
>= 3000ft
5 à 8 km
1000 à 3000 ft
1500m à 5 km
500 à 1000 ft
800 à 1500m
200 à 500 ft
< 800m
< 200 ft
Symboles :   Orages  Brouillard  Fortes neiges  Fortes précipitations  Vent > 20 kt
SIGMETs :   Divers  Orages  Givrage  Turbulence  Onde Orograph.  Cendres Volcan.






- Altitude de l'aérodrome : 1090 ft
- Code IATA : CFE


LFLC - Clermont-Ferrand Auvergne

DERNIER METAR :
  • 090200Z AUTO VRB02KT CAVOK 21/15 Q1018 TEMPO FEW090TCU

METARs EXPIRÉS :
  • 090130Z AUTO 00000KT CAVOK 22/15 Q1018 TEMPO FEW090TCU
  • 090100Z AUTO 29001KT CAVOK 22/14 Q1018 TEMPO FEW090TCU
  • 090030Z AUTO VRB01KT CAVOK 22/14 Q1018 TEMPO FEW090TCU
  • 090000Z AUTO VRB01KT CAVOK 23/14 Q1018 TEMPO FEW090TCU
  • 082330Z AUTO 01003KT 320V030 CAVOK 24/14 Q1017 TEMPO FEW090TCU

TAF TAF LFLC
Valide du 08 à 21h jusqu'au 09 à 21h UTC


082000Z 0821/0921 18005KT CAVOK
TEMPO 0900/0912 FEW090TCU
BECMG 0907/0909 VRB05KT
TEMPO 0912/0917 FEW090CB
PROB40
TEMPO 0913/0917 26020G35KT 2000 TSRA SCT035 BKN075CB
ATIS : +33 4 73 62 74 38



MET'MAP, la Météo Aéronautique d'un coup d'oeil ! - Copyright ORBIFLY Décembre 2007 - Disclaimer

ORBIFLY MET'MAP TEAM :

Programmation & Développement : Alexandra Zaïnal
Sur une idée originale de : Baudouin d'Aumeries
Assistance à la programmation : Marc-Olivier Méhu
Soutien technique & logistique : Manuel Goepfert

Contact : metmap@orbifly.com




SOURCES & CREDITS :

   NOAA